Schedule Details


Flight Number: CTN345
Departure: Sarajevo (LQSA) at 16:15
Arrival: Franjo Tudman (LDZA) at 17:05
Route: BOSNA L608 KOMAR L187 TEBLI

Weather Information
LQSA 072300Z VRB02KT 8000 -RA SCT025 BKN040 17/17 Q1019
LDZA 072300Z 26003KT CAVOK 19/18 Q1018 NOSIG
Schedule Frequency

Route Map